CST,Max TemperatureF,Mean TemperatureF,Min TemperatureF,Max Dew PointF,MeanDew PointF,Min DewpointF,Max Humidity, Mean Humidity, Min Humidity, Max Sea Level PressureIn, Mean Sea Level PressureIn, Min Sea Level PressureIn, Max VisibilityMiles, Mean VisibilityMiles, Min VisibilityMiles, Max Wind SpeedMPH, Mean Wind SpeedMPH, Max Gust SpeedMPH,PrecipitationIn, CloudCover, Events, WindDirDegrees
2013-11-1,67,55,43,47,42,35,100,66,32,29.94,29.82,29.73,10,10,8,20,8,28,0.02,1,Rain,274
2013-11-2,55,45,34,42,37,32,96,72,47,30.23,30.10,29.93,10,10,10,20,7,27,0.00,4,,300
2013-11-3,57,44,31,37,34,30,100,71,41,30.30,30.22,30.14,10,10,9,15,6,21,0.00,0,,147
2013-11-4,56,51,46,49,44,37,89,75,61,30.24,30.18,30.11,10,9,5,16,10,22,0.05,5,Rain,173
2013-11-5,57,54,50,54,51,48,96,90,83,30.24,30.15,30.04,10,7,2,16,7,23,0.33,8,Rain,143
2013-11-6,61,48,35,59,49,31,97,85,73,30.33,30.07,29.95,10,8,2,20,11,27,0.94,8,Rain,252
2013-11-7,61,47,32,35,31,26,92,61,29,30.43,30.37,30.32,10,10,10,15,6,22,0.00,0,,302
2013-11-8,59,45,31,35,31,28,85,59,33,30.37,30.27,30.15,10,8,4,16,6,21,0.00,0,,169
2013-11-9,67,54,40,41,38,35,85,60,34,30.26,30.18,30.13,10,8,4,15,6,20,0.00,0,,227
2013-11-10,66,53,40,40,33,28,89,58,26,30.41,30.33,30.27,10,10,10,13,5,18,0.00,1,,66
2013-11-11,66,51,35,50,40,32,92,66,39,30.38,30.26,30.18,10,9,3,22,6,32,T,7,Rain,290
2013-11-12,40,31,21,35,19,8,89,58,27,30.73,30.63,30.41,10,10,10,23,11,31,0.00,3,,5
2013-11-13,45,31,16,16,13,10,80,53,25,30.70,30.57,30.38,10,10,10,10,4,15,0.00,0,,179
2013-11-14,55,40,24,24,19,15,69,46,22,30.36,30.22,30.08,10,10,10,14,8,,0.00,0,,183
2013-11-15,50,46,42,47,39,25,86,66,45,30.09,30.02,29.95,10,10,6,14,7,19,0.03,8,Rain,174
2013-11-16,66,59,51,63,56,48,93,86,78,29.94,29.81,29.68,10,9,4,22,12,31,0.11,8,Rain-Thunderstorm,176
2013-11-17,78,65,52,65,49,16,93,54,15,30.02,29.69,29.57,10,10,10,30,13,44,0.00,4,,226
2013-11-18,61,48,35,36,26,19,70,46,22,30.30,30.21,30.04,10,10,10,16,6,22,0.00,0,,327
2013-11-19,54,43,32,28,25,20,75,52,28,30.34,30.25,30.17,10,10,10,13,6,17,0.00,1,,103
2013-11-20,56,46,35,34,27,23,70,49,27,30.17,30.10,30.00,10,10,10,18,9,23,T,5,,146
2013-11-21,52,49,45,51,46,33,100,75,50,30.20,30.12,30.06,10,3,0,13,4,17,3.01,8,Fog-Rain-Thunderstorm,124
2013-11-22,51,42,32,50,37,30,100,95,89,30.51,30.38,30.21,10,8,1,20,12,25,0.00,8,,352
2013-11-23,42,31,19,29,18,8,89,62,34,30.69,30.59,30.51,10,10,9,20,12,27,0.00,3,Snow,4
2013-11-24,29,21,13,10,7,4,80,57,34,30.71,30.61,30.44,10,10,10,15,6,18,0.00,2,,71
2013-11-25,33,30,27,28,21,10,78,60,42,30.40,30.27,30.17,10,10,8,12,4,14,0.01,8,,183
2013-11-26,47,36,24,28,23,10,85,67,49,30.26,30.14,30.06,10,10,9,23,11,33,T,4,,345
2013-11-27,35,27,18,13,9,7,68,50,32,30.39,30.34,30.27,10,10,10,20,8,29,0.00,0,,334
2013-11-28,52,37,22,24,18,11,69,49,29,30.47,30.36,30.31,10,10,10,15,6,18,0.00,0,,235
2013-11-29,52,40,27,31,25,21,76,57,38,30.56,30.47,30.39,10,10,10,10,6,16,0.00,0,,110
2013-11-30,57,42,27,41,33,24,92,68,43,30.38,30.25,30.16,10,10,10,14,6,19,0.00,1,,190